Weather at Ellison Onizuka Kona International Airport at Keahole

Public forecast

Using degrees Fahrenheit for public forecast. Weather courtesy of forecast.io.

Current aviation weather report (METAR) for Ellison Onizuka Kona International Airport at Keahole

2024/05/27 18:53 (retrieved 53 minutes ago)

PHKO 271853Z 28005KT 10SM FEW024 27/21 A3001

Aviation forecast (TAF) for Ellison Onizuka Kona International Airport at Keahole

2024/05/27 18:42 (retrieved 1 hour ago)

TAF PHKO 271739Z 2718/2818 VRB06KT P6SM VCSH FEW020 FEW050 FM272000 24010KT P6SM SCT050 FM280800 VRB06KT P6SM SCT030 OVC050